Time;durP1;ratioP1;P1;durP2;ratioP2;P2;SDS_P1;SDS_P2;PMS_P1;PMS_P2;Temp;Humidity;BMP_temperature;BMP_pressure;BME280_temperature;BME280_humidity;BME280_pressure;Samples;Min_cycle;Max_cycle;Signal;HPM_P1;HPM_P2
2022/04/09 00:00:07;;;;;;;;;;;;;;;;;;2081806;28;19970;-79
2022/04/09 00:01:08;;;;;;;;;;;;;;;;;;2083374;28;20368;-78
2022/04/09 00:02:08;;;;;;;;;;;;;;;;;;2073203;28;19917;-78
2022/04/09 00:03:11;;;;;;;;;;;;;;;;;;2073157;28;20616;-78
2022/04/09 00:04:11;;;;;;;;;;;;;;;;;;2073001;28;19917;-78
2022/04/09 00:05:13;;;;;;;;;;;;;;;;;;2073089;28;19917;-78
2022/04/09 00:06:15;;;;;;;;;;;;;;;;;;2072450;28;19914;-78
2022/04/09 00:07:16;;;;;;;;;;;;;;;;;;2081542;28;20265;-78
2022/04/09 00:08:18;;;;;;;;;;;;;;;;;;2081456;28;19912;-78
2022/04/09 00:09:18;;;;;;;;;;;;;;;;;;2081752;28;20164;-78
2022/04/09 00:10:21;;;;;;;;;;;;;;;;;;2081738;28;20258;-78
2022/04/09 00:11:21;;;;;;;;;;;;;;;;;;2081719;28;19917;-77
2022/04/09 00:12:21;;;;;;;;;;;;;;;;;;2081767;28;19913;-78
2022/04/09 00:13:22;;;;;;;;;;;;;;;;;;2072882;28;20365;-78
2022/04/09 00:14:23;;;;;;;;;;;;;;;;;;2073127;28;20285;-77
2022/04/09 00:15:24;;;;;;;;;;;;;;;;;;2081736;28;19913;-77
2022/04/09 00:16:24;;;;;;;;;;;;;;;;;;2073137;28;19914;-78
2022/04/09 00:17:27;;;;;;;;;;;;;;;;;;2073290;28;19913;-77
2022/04/09 00:18:30;;;;;;;;;;;;;;;;;;2073008;28;19956;-77
2022/04/09 00:19:35;;;;;;;;;;;;;;;;;;2073085;28;19914;-80
2022/04/09 00:20:35;;;;;;;;;;;;;;;;;;2073647;28;19913;-77
2022/04/09 00:21:36;;;;;;;;;;;;;;;;;;2072963;28;20004;-80
2022/04/09 00:22:42;;;;;;;;;;;;;;;;;;2072986;28;19917;-78
2022/04/09 00:23:45;;;;;;;;;;;;;;;;;;2073000;28;19917;-78
2022/04/09 00:24:48;;;;;;;;;;;;;;;;;;2072924;28;19920;-79
2022/04/09 00:25:48;;;;;;;;;;;;;;;;;;2065192;28;19937;-78
2022/04/09 00:26:55;;;;;;;;;;;;;;;;;;2073032;28;20077;-78
2022/04/09 00:28:11;;;;;;;;;;;;;;;;;;2081609;28;19913;-78
2022/04/09 00:29:13;;;;;;;;;;;;;;;;;;2073015;28;19914;-77
2022/04/09 00:30:13;;;;;;;;;;;;;;;;;;2073226;28;20026;-78
2022/04/09 00:31:14;;;;;;;;;;;;;;;;;;2081787;28;19917;-78
2022/04/09 00:32:14;;;;;;;;;;;;;;;;;;2081587;28;19924;-78
2022/04/09 00:33:14;;;;;;;;;;;;;;;;;;2073133;28;20340;-78
2022/04/09 00:34:14;;;;;;;;;;;;;;;;;;2064605;28;19950;-78
2022/04/09 00:35:15;;;;;;;;;;;;;;;;;;2072931;28;19914;-78
2022/04/09 00:36:16;;;;;;;;;;;;;;;;;;2081564;28;19924;-78
2022/04/09 00:37:16;;;;;;;;;;;;;;;;;;2081718;28;19917;-78
2022/04/09 00:38:16;;;;;;;;;;;;;;;;;;2081645;28;19956;-78
2022/04/09 00:39:17;;;;;;;;;;;;;;;;;;2081530;28;20426;-78
2022/04/09 00:40:20;;;;;;;;;;;;;;;;;;2072857;28;19953;-78
2022/04/09 00:41:28;;;;;;;;;;;;;;;;;;2073094;28;20288;-78
2022/04/09 00:42:30;;;;;;;;;;;;;;;;;;2081712;28;19964;-78
2022/04/09 00:43:30;;;;;;;;;;;;;;;;;;2081659;28;19944;-78
2022/04/09 00:44:34;;;;;;;;;;;;;;;;;;2081577;28;20353;-78
2022/04/09 00:45:37;;;;;;;;;;;;;;;;;;2081432;28;19923;-79
2022/04/09 00:46:37;;;;;;;;;;;;;;;;;;2081490;28;20015;-80
2022/04/09 00:47:37;;;;;;;;;;;;;;;;;;2081582;28;20420;-80
2022/04/09 00:48:38;;;;;;;;;;;;;;;;;;2081506;28;20012;-79
2022/04/09 00:49:39;;;;;;;;;;;;;;;;;;2072729;28;19917;-80
2022/04/09 00:50:39;;;;;;;;;;;;;;;;;;2072997;28;19913;-79
2022/04/09 00:51:42;;;;;;;;;;;;;;;;;;2081452;28;20062;-80
2022/04/09 00:52:48;;;;;;;;;;;;;;;;;;2081638;28;19913;-78
2022/04/09 00:53:50;;;;;;;;;;;;;;;;;;2081784;28;19956;-79
2022/04/09 00:54:54;;;;;;;;;;;;;;;;;;2081414;28;19999;-77
2022/04/09 00:57:14;;;;;;;;;;;;;;;;;;2081507;28;19913;-78
2022/04/09 00:58:15;;;;;;;;;;;;;;;;;;2081625;28;19924;-78
2022/04/09 00:59:16;;;;;;;;;;;;;;;;;;2072821;28;19913;-78
2022/04/09 01:00:17;;;;;;;;;;;;;;;;;;2073053;28;19914;-78
2022/04/09 01:01:20;;;;;;;;;;;;;;;;;;2081352;28;19932;-78
2022/04/09 01:02:21;;;;;;;;;;;;;;;;;;2081588;28;19999;-78
2022/04/09 01:03:24;;;;;;;;;;;;;;;;;;2081344;28;19913;-77
2022/04/09 01:04:24;;;;;;;;;;;;;;;;;;2081692;28;20328;-78
2022/04/09 01:05:27;;;;;;;;;;;;;;;;;;2081626;28;20032;-78
2022/04/09 01:06:31;;;;;;;;;;;;;;;;;;2081888;28;20000;-78
2022/04/09 01:07:34;;;;;;;;;;;;;;;;;;2072761;28;19913;-77
2022/04/09 01:08:35;;;;;;;;;;;;;;;;;;2073242;28;19913;-78
2022/04/09 01:09:35;;;;;;;;;;;;;;;;;;2081488;28;20293;-77
2022/04/09 01:10:38;;;;;;;;;;;;;;;;;;2081451;28;20491;-79
2022/04/09 01:11:41;;;;;;;;;;;;;;;;;;2081538;28;19917;-78
2022/04/09 01:12:41;;;;;;;;;;;;;;;;;;2072774;28;19917;-77
2022/04/09 01:13:44;;;;;;;;;;;;;;;;;;2072997;28;19914;-78
2022/04/09 01:14:45;;;;;;;;;;;;;;;;;;2072755;28;19940;-78
2022/04/09 01:15:45;;;;;;;;;;;;;;;;;;2072886;28;19914;-78
2022/04/09 01:16:48;;;;;;;;;;;;;;;;;;2081412;28;19913;-78
2022/04/09 01:17:48;;;;;;;;;;;;;;;;;;2081459;28;19916;-78
2022/04/09 01:18:48;;;;;;;;;;;;;;;;;;2072668;28;19913;-78
2022/04/09 01:19:48;;;;;;;;;;;;;;;;;;2072820;28;19913;-78
2022/04/09 01:20:49;;;;;;;;;;;;;;;;;;2073625;28;19913;-78
2022/04/09 01:21:51;;;;;;;;;;;;;;;;;;2074438;28;19975;-78
2022/04/09 01:22:52;;;;;;;;;;;;;;;;;;2082969;28;19929;-78
2022/04/09 01:23:53;;;;;;;;;;;;;;;;;;2082928;28;19975;-78
2022/04/09 01:24:53;;;;;;;;;;;;;;;;;;2082930;28;19917;-78
2022/04/09 01:25:55;;;;;;;;;;;;;;;;;;2083308;28;19914;-78
2022/04/09 01:26:56;;;;;;;;;;;;;;;;;;2082888;28;19924;-78
2022/04/09 01:27:56;;;;;;;;;;;;;;;;;;2083100;28;19913;-78
2022/04/09 01:28:57;;;;;;;;;;;;;;;;;;2074144;28;19956;-78
2022/04/09 01:29:58;;;;;;;;;;;;;;;;;;2066401;28;19918;-78
2022/04/09 01:30:58;;;;;;;;;;;;;;;;;;2074331;28;19973;-78
2022/04/09 01:31:59;;;;;;;;;;;;;;;;;;2074210;28;19945;-78
2022/04/09 01:32:59;;;;;;;;;;;;;;;;;;2074298;28;19996;-78
2022/04/09 01:33:59;;;;;;;;;;;;;;;;;;2082866;28;20012;-78
2022/04/09 01:35:01;;;;;;;;;;;;;;;;;;2082990;28;20511;-78
2022/04/09 01:36:02;;;;;;;;;;;;;;;;;;2074327;28;19918;-78
2022/04/09 01:37:02;;;;;;;;;;;;;;;;;;2066188;28;19956;-78
2022/04/09 01:38:02;;;;;;;;;;;;;;;;;;2074246;28;19921;-78
2022/04/09 01:39:03;;;;;;;;;;;;;;;;;;2074277;28;19967;-78
2022/04/09 01:40:06;;;;;;;;;;;;;;;;;;2074275;28;20421;-78
2022/04/09 01:41:06;;;;;;;;;;;;;;;;;;2082832;28;20016;-78
2022/04/09 01:42:10;;;;;;;;;;;;;;;;;;2074120;28;20369;-78
2022/04/09 01:43:10;;;;;;;;;;;;;;;;;;2066429;28;20027;-78
2022/04/09 01:44:10;;;;;;;;;;;;;;;;;;2065868;28;19953;-78
2022/04/09 01:45:11;;;;;;;;;;;;;;;;;;2074206;28;20314;-78
2022/04/09 01:46:14;;;;;;;;;;;;;;;;;;2082688;28;20011;-78
2022/04/09 01:47:14;;;;;;;;;;;;;;;;;;2083197;28;20297;-78
2022/04/09 01:48:14;;;;;;;;;;;;;;;;;;2074171;28;19913;-78
2022/04/09 01:49:15;;;;;;;;;;;;;;;;;;2066041;28;20395;-78
2022/04/09 01:50:15;;;;;;;;;;;;;;;;;;2074135;28;19995;-78
2022/04/09 01:51:15;;;;;;;;;;;;;;;;;;2074226;28;20361;-78
2022/04/09 01:52:18;;;;;;;;;;;;;;;;;;2074181;28;20281;-78
2022/04/09 01:53:19;;;;;;;;;;;;;;;;;;2082836;28;19917;-78
2022/04/09 01:54:19;;;;;;;;;;;;;;;;;;2082768;28;19995;-77
2022/04/09 01:55:20;;;;;;;;;;;;;;;;;;2074130;28;20271;-80
2022/04/09 01:56:21;;;;;;;;;;;;;;;;;;2065956;28;19913;-78
2022/04/09 01:57:21;;;;;;;;;;;;;;;;;;2066093;28;20449;-78
2022/04/09 01:58:21;;;;;;;;;;;;;;;;;;2074244;28;19918;-78
2022/04/09 01:59:24;;;;;;;;;;;;;;;;;;2074029;28;19996;-78
2022/04/09 02:00:25;;;;;;;;;;;;;;;;;;2074418;28;20358;-77
2022/04/09 02:01:25;;;;;;;;;;;;;;;;;;2073972;28;19918;-78
2022/04/09 02:02:25;;;;;;;;;;;;;;;;;;2073987;28;19913;-78
2022/04/09 02:03:28;;;;;;;;;;;;;;;;;;2082895;28;19920;-78
2022/04/09 02:04:28;;;;;;;;;;;;;;;;;;2082937;28;19925;-78
2022/04/09 02:05:29;;;;;;;;;;;;;;;;;;2082774;28;20342;-78
2022/04/09 02:06:29;;;;;;;;;;;;;;;;;;2082769;28;20350;-78
2022/04/09 02:07:31;;;;;;;;;;;;;;;;;;2074278;28;20267;-78
2022/04/09 02:08:34;;;;;;;;;;;;;;;;;;2074441;28;20008;-78
2022/04/09 02:09:34;;;;;;;;;;;;;;;;;;2073707;28;19913;-78
2022/04/09 02:10:37;;;;;;;;;;;;;;;;;;2065926;28;19925;-78
2022/04/09 02:11:39;;;;;;;;;;;;;;;;;;2074422;28;19944;-78
2022/04/09 02:12:40;;;;;;;;;;;;;;;;;;2082694;28;19962;-80
2022/04/09 02:13:40;;;;;;;;;;;;;;;;;;2082691;28;19949;-78
2022/04/09 02:14:43;;;;;;;;;;;;;;;;;;2082663;28;19928;-78
2022/04/09 02:15:43;;;;;;;;;;;;;;;;;;2082784;28;19924;-79
2022/04/09 02:16:43;;;;;;;;;;;;;;;;;;2082590;28;19923;-78
2022/04/09 02:17:44;;;;;;;;;;;;;;;;;;2082710;28;20007;-78
2022/04/09 02:18:49;;;;;;;;;;;;;;;;;;2082595;28;20362;-77
2022/04/09 02:19:49;;;;;;;;;;;;;;;;;;2082796;28;20388;-78
2022/04/09 02:20:52;;;;;;;;;;;;;;;;;;2073814;28;19913;-78
2022/04/09 02:21:53;;;;;;;;;;;;;;;;;;2074454;28;19924;-78
2022/04/09 02:22:53;;;;;;;;;;;;;;;;;;2082504;28;19913;-80
2022/04/09 02:23:53;;;;;;;;;;;;;;;;;;2073787;28;19936;-78
2022/04/09 02:24:54;;;;;;;;;;;;;;;;;;2065910;28;19914;-78
2022/04/09 02:25:54;;;;;;;;;;;;;;;;;;2074099;28;20349;-78
2022/04/09 02:26:57;;;;;;;;;;;;;;;;;;2065846;28;19940;-78
2022/04/09 02:27:57;;;;;;;;;;;;;;;;;;2066245;28;20407;-78
2022/04/09 02:28:57;;;;;;;;;;;;;;;;;;2073968;28;19917;-78
2022/04/09 02:29:58;;;;;;;;;;;;;;;;;;2082641;28;19982;-78
2022/04/09 02:30:58;;;;;;;;;;;;;;;;;;2082476;28;19929;-80
2022/04/09 02:32:02;;;;;;;;;;;;;;;;;;2082393;28;19913;-79
2022/04/09 02:33:06;;;;;;;;;;;;;;;;;;2082608;28;19913;-78
2022/04/09 02:34:06;;;;;;;;;;;;;;;;;;2082352;28;20289;-78
2022/04/09 02:35:06;;;;;;;;;;;;;;;;;;2082449;28;19913;-79
2022/04/09 02:36:10;;;;;;;;;;;;;;;;;;2073725;28;20385;-78
2022/04/09 02:37:11;;;;;;;;;;;;;;;;;;2074422;28;19913;-79
2022/04/09 02:38:11;;;;;;;;;;;;;;;;;;2082450;28;20341;-78
2022/04/09 02:39:11;;;;;;;;;;;;;;;;;;2082660;28;19913;-78
2022/04/09 02:40:15;;;;;;;;;;;;;;;;;;2073752;28;19925;-78
2022/04/09 02:41:17;;;;;;;;;;;;;;;;;;2066094;28;20394;-78
2022/04/09 02:42:18;;;;;;;;;;;;;;;;;;2074231;28;19979;-78
2022/04/09 02:43:18;;;;;;;;;;;;;;;;;;2082554;28;19945;-78
2022/04/09 02:44:21;;;;;;;;;;;;;;;;;;2082475;28;19924;-79
2022/04/09 02:45:22;;;;;;;;;;;;;;;;;;2082511;28;19917;-78
2022/04/09 02:46:22;;;;;;;;;;;;;;;;;;2082512;28;20350;-78
2022/04/09 02:47:24;;;;;;;;;;;;;;;;;;2082543;28;19932;-78
2022/04/09 02:48:25;;;;;;;;;;;;;;;;;;2082603;28;20351;-78
2022/04/09 02:49:25;;;;;;;;;;;;;;;;;;2082610;28;20373;-78
2022/04/09 02:50:25;;;;;;;;;;;;;;;;;;2073675;28;20354;-78
2022/04/09 02:51:26;;;;;;;;;;;;;;;;;;2073714;28;20019;-78
2022/04/09 02:52:29;;;;;;;;;;;;;;;;;;2073594;28;19928;-78
2022/04/09 02:53:29;;;;;;;;;;;;;;;;;;2074054;28;20635;-78
2022/04/09 02:54:29;;;;;;;;;;;;;;;;;;2073959;28;19953;-78
2022/04/09 02:55:30;;;;;;;;;;;;;;;;;;2074016;28;20015;-78
2022/04/09 02:56:30;;;;;;;;;;;;;;;;;;2073551;28;19924;-78
2022/04/09 02:57:31;;;;;;;;;;;;;;;;;;2065511;28;19949;-78
2022/04/09 02:58:31;;;;;;;;;;;;;;;;;;2073728;28;19945;-78
2022/04/09 02:59:31;;;;;;;;;;;;;;;;;;2082483;28;20416;-79
2022/04/09 03:00:32;;;;;;;;;;;;;;;;;;2073471;28;19914;-79
2022/04/09 03:01:32;;;;;;;;;;;;;;;;;;2065389;28;19922;-79
2022/04/09 03:02:36;;;;;;;;;;;;;;;;;;2073703;28;20004;-78
2022/04/09 03:03:36;;;;;;;;;;;;;;;;;;2074106;28;19924;-78
2022/04/09 03:04:36;;;;;;;;;;;;;;;;;;2082393;28;19913;-78
2022/04/09 03:05:37;;;;;;;;;;;;;;;;;;2073555;28;20425;-78
2022/04/09 03:06:37;;;;;;;;;;;;;;;;;;2073714;28;19980;-78
2022/04/09 03:07:37;;;;;;;;;;;;;;;;;;2082157;28;20542;-78
2022/04/09 03:08:38;;;;;;;;;;;;;;;;;;2082275;28;19979;-78
2022/04/09 03:09:41;;;;;;;;;;;;;;;;;;2082255;28;19923;-78
2022/04/09 03:10:41;;;;;;;;;;;;;;;;;;2082285;28;19924;-78
2022/04/09 03:11:42;;;;;;;;;;;;;;;;;;2073486;28;20324;-78
2022/04/09 03:12:43;;;;;;;;;;;;;;;;;;2073760;28;20335;-78
2022/04/09 03:13:43;;;;;;;;;;;;;;;;;;2073467;28;19929;-78
2022/04/09 03:14:44;;;;;;;;;;;;;;;;;;2073627;28;20294;-78
2022/04/09 03:15:44;;;;;;;;;;;;;;;;;;2073499;28;19924;-78
2022/04/09 03:16:47;;;;;;;;;;;;;;;;;;2073764;28;20421;-78
2022/04/09 03:17:47;;;;;;;;;;;;;;;;;;2082063;28;20297;-78
2022/04/09 03:18:48;;;;;;;;;;;;;;;;;;2082232;28;19916;-78
2022/04/09 03:19:48;;;;;;;;;;;;;;;;;;2073365;28;19918;-78
2022/04/09 03:20:48;;;;;;;;;;;;;;;;;;2065492;28;19928;-78
2022/04/09 03:21:48;;;;;;;;;;;;;;;;;;2073476;28;20007;-78
2022/04/09 03:22:49;;;;;;;;;;;;;;;;;;2073467;28;19913;-78
2022/04/09 03:23:49;;;;;;;;;;;;;;;;;;2073441;28;19918;-78
2022/04/09 03:24:50;;;;;;;;;;;;;;;;;;2082062;28;19924;-78
2022/04/09 03:25:50;;;;;;;;;;;;;;;;;;2082071;28;19924;-78
2022/04/09 03:26:50;;;;;;;;;;;;;;;;;;2082157;28;19913;-79
2022/04/09 03:27:52;;;;;;;;;;;;;;;;;;2082037;28;20012;-78
2022/04/09 03:28:53;;;;;;;;;;;;;;;;;;2082089;28;19917;-78
2022/04/09 03:29:53;;;;;;;;;;;;;;;;;;2082007;28;19913;-78
2022/04/09 03:30:53;;;;;;;;;;;;;;;;;;2081985;28;19913;-78
2022/04/09 03:31:54;;;;;;;;;;;;;;;;;;2081937;28;19971;-78
2022/04/09 03:32:55;;;;;;;;;;;;;;;;;;2081966;28;19913;-78
2022/04/09 03:33:55;;;;;;;;;;;;;;;;;;2081857;28;19913;-78
2022/04/09 03:34:57;;;;;;;;;;;;;;;;;;2082062;28;19952;-79
2022/04/09 03:35:57;;;;;;;;;;;;;;;;;;2082206;28;20277;-78
2022/04/09 03:37:02;;;;;;;;;;;;;;;;;;2081902;28;20008;-79
2022/04/09 03:38:03;;;;;;;;;;;;;;;;;;2073206;28;20417;-78
2022/04/09 03:39:03;;;;;;;;;;;;;;;;;;2073191;28;19917;-78
2022/04/09 03:40:06;;;;;;;;;;;;;;;;;;2081797;28;19924;-78
2022/04/09 03:41:07;;;;;;;;;;;;;;;;;;2081999;28;19924;-78
2022/04/09 03:42:07;;;;;;;;;;;;;;;;;;2081947;28;19960;-78
2022/04/09 03:43:08;;;;;;;;;;;;;;;;;;2081169;28;19959;-78
2022/04/09 03:44:08;;;;;;;;;;;;;;;;;;2081715;28;19917;-80
2022/04/09 03:45:09;;;;;;;;;;;;;;;;;;2081747;28;20000;-80
2022/04/09 03:46:09;;;;;;;;;;;;;;;;;;2082116;28;20348;-78
2022/04/09 03:47:09;;;;;;;;;;;;;;;;;;2081572;28;19916;-78
2022/04/09 03:48:09;;;;;;;;;;;;;;;;;;2073203;28;19914;-80
2022/04/09 03:49:10;;;;;;;;;;;;;;;;;;2073068;28;19913;-78
2022/04/09 03:50:10;;;;;;;;;;;;;;;;;;2081863;28;20277;-78
2022/04/09 03:51:12;;;;;;;;;;;;;;;;;;2081797;28;19913;-78
2022/04/09 03:52:13;;;;;;;;;;;;;;;;;;2081793;28;19917;-80
2022/04/09 03:53:19;;;;;;;;;;;;;;;;;;2073024;28;19952;-80
2022/04/09 03:54:27;;;;;;;;;;;;;;;;;;2073917;28;19913;-79
2022/04/09 03:55:29;;;;;;;;;;;;;;;;;;2083013;28;20268;-80
2022/04/09 03:56:29;;;;;;;;;;;;;;;;;;2081814;28;19928;-80
2022/04/09 03:57:30;;;;;;;;;;;;;;;;;;2072967;28;19953;-80
2022/04/09 03:58:30;;;;;;;;;;;;;;;;;;2065061;28;19956;-77
2022/04/09 03:59:30;;;;;;;;;;;;;;;;;;2064919;28;19918;-79
2022/04/09 04:00:31;;;;;;;;;;;;;;;;;;2073148;28;19975;-79
2022/04/09 04:01:34;;;;;;;;;;;;;;;;;;2081614;28;20182;-79
2022/04/09 04:02:34;;;;;;;;;;;;;;;;;;2081676;28;19932;-79
2022/04/09 04:03:37;;;;;;;;;;;;;;;;;;2072875;28;19948;-79
2022/04/09 04:04:38;;;;;;;;;;;;;;;;;;2065306;28;19918;-79
2022/04/09 04:05:38;;;;;;;;;;;;;;;;;;2073211;28;19917;-79
2022/04/09 04:06:40;;;;;;;;;;;;;;;;;;2073123;28;19957;-79
2022/04/09 04:07:47;;;;;;;;;;;;;;;;;;2073308;28;19917;-79
2022/04/09 04:08:47;;;;;;;;;;;;;;;;;;2073191;28;19924;-79
2022/04/09 04:09:47;;;;;;;;;;;;;;;;;;2073153;28;19925;-79
2022/04/09 04:10:52;;;;;;;;;;;;;;;;;;2073142;28;19913;-79
2022/04/09 04:11:53;;;;;;;;;;;;;;;;;;2073700;28;20366;-80
2022/04/09 04:12:53;;;;;;;;;;;;;;;;;;2081709;28;19977;-79
2022/04/09 04:13:53;;;;;;;;;;;;;;;;;;2072944;28;20366;-79
2022/04/09 04:14:54;;;;;;;;;;;;;;;;;;2064910;28;20351;-79
2022/04/09 04:15:55;;;;;;;;;;;;;;;;;;2073111;28;19917;-79
2022/04/09 04:16:58;;;;;;;;;;;;;;;;;;2081839;28;19924;-79
2022/04/09 04:17:58;;;;;;;;;;;;;;;;;;2072955;28;19924;-79
2022/04/09 04:18:59;;;;;;;;;;;;;;;;;;2072900;28;19968;-79
2022/04/09 04:20:00;;;;;;;;;;;;;;;;;;2081544;28;19913;-79
2022/04/09 04:21:01;;;;;;;;;;;;;;;;;;2081512;28;19983;-79
2022/04/09 04:22:01;;;;;;;;;;;;;;;;;;2081682;28;19990;-78
2022/04/09 04:23:03;;;;;;;;;;;;;;;;;;2081564;28;19913;-78
2022/04/09 04:24:04;;;;;;;;;;;;;;;;;;2072925;28;19917;-78
2022/04/09 04:25:10;;;;;;;;;;;;;;;;;;2072992;28;20063;-78
2022/04/09 04:26:10;;;;;;;;;;;;;;;;;;2073062;28;19920;-79
2022/04/09 04:27:20;;;;;;;;;;;;;;;;;;;;;
2022/04/09 04:28:23;;;;;;;;;;;;;;;;;;2081818;28;19924;-79
2022/04/09 04:29:24;;;;;;;;;;;;;;;;;;2072862;28;19964;-79
2022/04/09 04:30:35;;;;;;;;;;;;;;;;;;2065084;28;20004;-80
2022/04/09 04:31:56;;;;;;;;;;;;;;;;;;2072951;28;19921;-79
2022/04/09 04:33:06;;;;;;;;;;;;;;;;;;2075331;28;20374;-79
2022/04/09 04:34:07;;;;;;;;;;;;;;;;;;2082426;28;19956;-79
2022/04/09 04:35:08;;;;;;;;;;;;;;;;;;2081638;28;19924;-80
2022/04/09 04:36:25;;;;;;;;;;;;;;;;;;2081717;28;19921;-80
2022/04/09 04:37:35;;;;;;;;;;;;;;;;;;2082789;28;20314;-80
2022/04/09 04:38:38;;;;;;;;;;;;;;;;;;2081737;28;20404;-80
2022/04/09 04:39:58;;;;;;;;;;;;;;;;;;2081583;28;19921;-80
2022/04/09 04:41:06;;;;;;;;;;;;;;;;;;2081460;28;19917;-80
2022/04/09 04:42:14;;;;;;;;;;;;;;;;;;2081631;28;19933;-80
2022/04/09 04:43:14;;;;;;;;;;;;;;;;;;2083532;28;19913;-80
2022/04/09 04:44:20;;;;;;;;;;;;;;;;;;2081720;28;19924;-81
2022/04/09 04:45:29;;;;;;;;;;;;;;;;;;2081724;28;19936;-80
2022/04/09 04:46:39;;;;;;;;;;;;;;;;;;2073143;28;20283;-81
2022/04/09 04:47:51;;;;;;;;;;;;;;;;;;2065936;28;19941;-80
2022/04/09 04:48:52;;;;;;;;;;;;;;;;;;2075547;28;19914;-82
2022/04/09 04:49:52;;;;;;;;;;;;;;;;;;2081515;28;19913;-80
2022/04/09 04:50:52;;;;;;;;;;;;;;;;;;2072972;28;20302;-81
2022/04/09 04:51:55;;;;;;;;;;;;;;;;;;2064973;28;20271;-81
2022/04/09 04:53:00;;;;;;;;;;;;;;;;;;2073151;28;20037;-81
2022/04/09 04:54:11;;;;;;;;;;;;;;;;;;2082484;28;20036;-81
2022/04/09 04:55:14;;;;;;;;;;;;;;;;;;2081572;28;20016;-80
2022/04/09 04:58:18;;;;;;;;;;;;;;;;;;2058466;28;20268;-80
2022/04/09 04:59:18;;;;;;;;;;;;;;;;;;2083218;28;20345;-80
2022/04/09 05:00:24;;;;;;;;;;;;;;;;;;2083203;28;19964;-80
2022/04/09 05:01:44;;;;;;;;;;;;;;;;;;2074490;28;20434;-81
2022/04/09 05:02:44;;;;;;;;;;;;;;;;;;2077858;28;20346;-80
2022/04/09 05:03:44;;;;;;;;;;;;;;;;;;2074243;28;19941;-80
2022/04/09 05:04:50;;;;;;;;;;;;;;;;;;2074649;28;19953;-80
2022/04/09 05:05:53;;;;;;;;;;;;;;;;;;2083185;28;20344;-80
2022/04/09 05:06:54;;;;;;;;;;;;;;;;;;2074464;28;19992;-80
2022/04/09 05:07:57;;;;;;;;;;;;;;;;;;2074524;28;19918;-80
2022/04/09 05:09:00;;;;;;;;;;;;;;;;;;2083106;28;19988;-80
2022/04/09 05:10:05;;;;;;;;;;;;;;;;;;2081636;28;19913;-80
2022/04/09 05:11:05;;;;;;;;;;;;;;;;;;2074043;28;20016;-81
2022/04/09 05:12:06;;;;;;;;;;;;;;;;;;2071954;28;20302;-80
2022/04/09 05:13:09;;;;;;;;;;;;;;;;;;2066269;28;19914;-80
2022/04/09 05:14:10;;;;;;;;;;;;;;;;;;2060384;28;20000;-80
2022/04/09 05:19:30;;;;;;;;;;;;;;;;;;;;;
2022/04/09 05:21:19;;;;;;;;;;;;;;;;;;;;;
2022/04/09 05:24:21;;;;;;;;;;;;;;;;;;2033241;29;20052;-81
2022/04/09 05:25:33;;;;;;;;;;;;;;;;;;2035143;29;19947;-81
2022/04/09 05:26:42;;;;;;;;;;;;;;;;;;2046864;28;19951;-81
2022/04/09 05:27:45;;;;;;;;;;;;;;;;;;2074711;28;19920;-81
2022/04/09 05:28:55;;;;;;;;;;;;;;;;;;2074743;28;19957;-81
2022/04/09 05:29:58;;;;;;;;;;;;;;;;;;2065502;28;19941;-81
2022/04/09 05:31:11;;;;;;;;;;;;;;;;;;;;;
2022/04/09 05:32:39;;;;;;;;;;;;;;;;;;2072426;28;19913;-81
2022/04/09 05:33:44;;;;;;;;;;;;;;;;;;2065325;28;19924;-81
2022/04/09 05:34:46;;;;;;;;;;;;;;;;;;2065302;28;19918;-81
2022/04/09 05:36:01;;;;;;;;;;;;;;;;;;2065531;28;19914;-81
2022/04/09 05:37:10;;;;;;;;;;;;;;;;;;2065463;28;20290;-80
2022/04/09 05:38:13;;;;;;;;;;;;;;;;;;2058446;28;19914;-81
2022/04/09 05:39:24;;;;;;;;;;;;;;;;;;;;;
2022/04/09 05:40:36;;;;;;;;;;;;;;;;;;2073855;28;19918;-81
2022/04/09 05:41:41;;;;;;;;;;;;;;;;;;2073784;28;19913;-81
2022/04/09 05:42:41;;;;;;;;;;;;;;;;;;2065242;28;19914;-80
2022/04/09 05:43:44;;;;;;;;;;;;;;;;;;2065348;28;19914;-82
2022/04/09 05:44:52;;;;;;;;;;;;;;;;;;2073820;28;19928;-80
2022/04/09 05:45:57;;;;;;;;;;;;;;;;;;2074418;28;19914;-81
2022/04/09 05:47:07;;;;;;;;;;;;;;;;;;2074680;28;20369;-81
2022/04/09 05:48:07;;;;;;;;;;;;;;;;;;2076379;28;19957;-81
2022/04/09 05:49:08;;;;;;;;;;;;;;;;;;2074530;28;19913;-81
2022/04/09 05:50:26;;;;;;;;;;;;;;;;;;2074842;28;20366;-81
2022/04/09 05:51:26;;;;;;;;;;;;;;;;;;2077367;28;19928;-81
2022/04/09 05:52:26;;;;;;;;;;;;;;;;;;2074445;28;20282;-81
2022/04/09 05:53:27;;;;;;;;;;;;;;;;;;2065829;28;19968;-81
2022/04/09 05:54:27;;;;;;;;;;;;;;;;;;2065940;28;19925;-81
2022/04/09 05:55:27;;;;;;;;;;;;;;;;;;2074683;28;19920;-81
2022/04/09 05:56:28;;;;;;;;;;;;;;;;;;2074574;28;20007;-81
2022/04/09 05:57:28;;;;;;;;;;;;;;;;;;2074422;28;19921;-81
2022/04/09 05:58:28;;;;;;;;;;;;;;;;;;2065857;28;19929;-81
2022/04/09 05:59:30;;;;;;;;;;;;;;;;;;2066029;28;19943;-81
2022/04/09 06:00:32;;;;;;;;;;;;;;;;;;2074515;28;19980;-81
2022/04/09 06:01:33;;;;;;;;;;;;;;;;;;2065962;28;20334;-80
2022/04/09 06:02:35;;;;;;;;;;;;;;;;;;2065958;28;19913;-80
2022/04/09 06:03:35;;;;;;;;;;;;;;;;;;2074647;28;19941;-80
2022/04/09 06:04:36;;;;;;;;;;;;;;;;;;2074668;28;19996;-81
2022/04/09 06:05:36;;;;;;;;;;;;;;;;;;2074539;28;19913;-81
2022/04/09 06:06:37;;;;;;;;;;;;;;;;;;2074036;28;20360;-81
2022/04/09 06:07:38;;;;;;;;;;;;;;;;;;2074613;28;20043;-80
2022/04/09 06:08:38;;;;;;;;;;;;;;;;;;2074307;28;20259;-80
2022/04/09 06:09:40;;;;;;;;;;;;;;;;;;2074627;28;19925;-81
2022/04/09 06:10:40;;;;;;;;;;;;;;;;;;2074358;28;19976;-80
2022/04/09 06:11:41;;;;;;;;;;;;;;;;;;2065679;28;19917;-80
2022/04/09 06:12:42;;;;;;;;;;;;;;;;;;2065688;28;19914;-81
2022/04/09 06:13:42;;;;;;;;;;;;;;;;;;2074287;28;19924;-81
2022/04/09 06:14:43;;;;;;;;;;;;;;;;;;2074196;28;19914;-81
2022/04/09 06:15:50;;;;;;;;;;;;;;;;;;2074467;28;19914;-81
2022/04/09 06:16:51;;;;;;;;;;;;;;;;;;2066116;28;19914;-81
2022/04/09 06:17:55;;;;;;;;;;;;;;;;;;2065883;28;19922;-81
2022/04/09 06:18:56;;;;;;;;;;;;;;;;;;2074347;28;20355;-81
2022/04/09 06:19:56;;;;;;;;;;;;;;;;;;2074174;28;19913;-80
2022/04/09 06:20:56;;;;;;;;;;;;;;;;;;2074184;28;19914;-80
2022/04/09 06:21:57;;;;;;;;;;;;;;;;;;2065752;28;19945;-81
2022/04/09 06:22:59;;;;;;;;;;;;;;;;;;2065903;28;19920;-80
2022/04/09 06:24:00;;;;;;;;;;;;;;;;;;2065567;28;19917;-80
2022/04/09 06:25:00;;;;;;;;;;;;;;;;;;2065952;28;19913;-81
2022/04/09 06:26:01;;;;;;;;;;;;;;;;;;2065758;28;19914;-81
2022/04/09 06:27:01;;;;;;;;;;;;;;;;;;2057847;28;19954;-81
2022/04/09 06:28:01;;;;;;;;;;;;;;;;;;2065652;28;19961;-81
2022/04/09 06:29:02;;;;;;;;;;;;;;;;;;2074434;28;19913;-80
2022/04/09 06:30:13;;;;;;;;;;;;;;;;;;2074274;28;19980;-81
2022/04/09 06:31:14;;;;;;;;;;;;;;;;;;2077259;28;19924;-81
2022/04/09 06:32:14;;;;;;;;;;;;;;;;;;2074499;28;20381;-80
2022/04/09 06:33:22;;;;;;;;;;;;;;;;;;2065788;28;19917;-81
2022/04/09 06:34:23;;;;;;;;;;;;;;;;;;2066863;28;19914;-80
2022/04/09 06:35:24;;;;;;;;;;;;;;;;;;2074293;28;19918;-80
2022/04/09 06:36:27;;;;;;;;;;;;;;;;;;2074285;28;20259;-81
2022/04/09 06:37:28;;;;;;;;;;;;;;;;;;2065285;28;20274;-80
2022/04/09 06:38:30;;;;;;;;;;;;;;;;;;2065758;28;19980;-80
2022/04/09 06:39:30;;;;;;;;;;;;;;;;;;2074177;28;20358;-80
2022/04/09 06:40:31;;;;;;;;;;;;;;;;;;2074239;28;19917;-81
2022/04/09 06:41:33;;;;;;;;;;;;;;;;;;2074238;28;20306;-81
2022/04/09 06:42:33;;;;;;;;;;;;;;;;;;2074218;28;19921;-81
2022/04/09 06:43:33;;;;;;;;;;;;;;;;;;2074158;28;19921;-81
2022/04/09 06:44:36;;;;;;;;;;;;;;;;;;2065724;28;19917;-81
2022/04/09 06:45:36;;;;;;;;;;;;;;;;;;2065908;28;19918;-81
2022/04/09 06:46:36;;;;;;;;;;;;;;;;;;2074159;28;20414;-81
2022/04/09 06:47:40;;;;;;;;;;;;;;;;;;2074242;28;19914;-81
2022/04/09 06:48:40;;;;;;;;;;;;;;;;;;2074078;28;19925;-81
2022/04/09 06:49:40;;;;;;;;;;;;;;;;;;2065647;28;20359;-81
2022/04/09 06:50:41;;;;;;;;;;;;;;;;;;2065510;28;19925;-81
2022/04/09 06:51:41;;;;;;;;;;;;;;;;;;2065462;28;19929;-81
2022/04/09 06:52:42;;;;;;;;;;;;;;;;;;2065617;28;20378;-81
2022/04/09 06:53:44;;;;;;;;;;;;;;;;;;2074124;28;20392;-81
2022/04/09 06:54:44;;;;;;;;;;;;;;;;;;2074249;28;19914;-81
2022/04/09 06:55:51;;;;;;;;;;;;;;;;;;2074338;28;19913;-82
2022/04/09 06:56:51;;;;;;;;;;;;;;;;;;2065440;28;20377;-83
2022/04/09 06:57:59;;;;;;;;;;;;;;;;;;2065573;28;19972;-81
2022/04/09 06:59:02;;;;;;;;;;;;;;;;;;2073939;28;19925;-81
2022/04/09 07:00:04;;;;;;;;;;;;;;;;;;2074146;28;19924;-81
2022/04/09 07:01:04;;;;;;;;;;;;;;;;;;2074007;28;19921;-81
2022/04/09 07:02:05;;;;;;;;;;;;;;;;;;2074105;28;19913;-79
2022/04/09 07:03:05;;;;;;;;;;;;;;;;;;2073930;28;19967;-79
2022/04/09 07:04:05;;;;;;;;;;;;;;;;;;2065214;28;19983;-81
2022/04/09 07:05:08;;;;;;;;;;;;;;;;;;2065549;28;19924;-81
2022/04/09 07:06:13;;;;;;;;;;;;;;;;;;2073930;28;19917;-80
2022/04/09 07:07:25;;;;;;;;;;;;;;;;;;2075799;28;20740;-80
2022/04/09 07:08:26;;;;;;;;;;;;;;;;;;2079169;28;19920;-80
2022/04/09 07:09:26;;;;;;;;;;;;;;;;;;2074124;28;20000;-80
2022/04/09 07:10:26;;;;;;;;;;;;;;;;;;2077550;28;19918;-80
2022/04/09 07:11:29;;;;;;;;;;;;;;;;;;2072061;28;20378;-80
2022/04/09 07:12:30;;;;;;;;;;;;;;;;;;2073592;28;19932;-80
2022/04/09 07:13:31;;;;;;;;;;;;;;;;;;2074758;28;19917;-80
2022/04/09 07:14:31;;;;;;;;;;;;;;;;;;2073897;28;19928;-80
2022/04/09 07:15:32;;;;;;;;;;;;;;;;;;2070798;28;20345;-79